sensor_id;sensor_type;location;lat;lon;timestamp;P1;durP1;ratioP1;P2;durP2;ratioP2
36833;SDS011;48003;52.084;5.224;2022-10-30T00:00:52;14.3;;;8.31;;
36833;SDS011;48003;52.084;5.224;2022-10-30T00:02:28;21.4;;;8.71;;
36833;SDS011;48003;52.084;5.224;2022-10-30T00:04:05;18.0;;;9.81;;
36833;SDS011;48003;52.084;5.224;2022-10-30T00:07:21;17.0;;;9.81;;
36833;SDS011;48003;52.084;5.224;2022-10-30T00:08:57;17.11;;;8.81;;
36833;SDS011;48003;52.084;5.224;2022-10-30T00:10:33;19.0;;;9.9;;
36833;SDS011;48003;52.084;5.224;2022-10-30T00:13:45;16.9;;;8.4;;
36833;SDS011;48003;52.084;5.224;2022-10-30T00:15:21;18.11;;;9.0;;
36833;SDS011;48003;52.084;5.224;2022-10-30T00:16:58;17.41;;;8.5;;
36833;SDS011;48003;52.084;5.224;2022-10-30T00:18:34;17.91;;;9.1;;
36833;SDS011;48003;52.084;5.224;2022-10-30T00:21:47;16.5;;;8.9;;
36833;SDS011;48003;52.084;5.224;2022-10-30T00:23:23;25.0;;;10.0;;
36833;SDS011;48003;52.084;5.224;2022-10-30T00:24:59;20.11;;;9.81;;
36833;SDS011;48003;52.084;5.224;2022-10-30T00:28:12;14.6;;;8.9;;
36833;SDS011;48003;52.084;5.224;2022-10-30T00:29:48;15.7;;;8.9;;
36833;SDS011;48003;52.084;5.224;2022-10-30T00:31:24;18.61;;;9.0;;
36833;SDS011;48003;52.084;5.224;2022-10-30T00:34:37;15.1;;;8.71;;
36833;SDS011;48003;52.084;5.224;2022-10-30T00:36:13;17.61;;;9.71;;
36833;SDS011;48003;52.084;5.224;2022-10-30T00:37:49;19.2;;;9.81;;
36833;SDS011;48003;52.084;5.224;2022-10-30T00:41:02;19.0;;;9.31;;
36833;SDS011;48003;52.084;5.224;2022-10-30T00:42:39;20.2;;;9.4;;
36833;SDS011;48003;52.084;5.224;2022-10-30T00:44:31;18.3;;;8.31;;
36833;SDS011;48003;52.084;5.224;2022-10-30T00:46:14;19.5;;;9.0;;
36833;SDS011;48003;52.084;5.224;2022-10-30T00:47:56;19.5;;;9.5;;
36833;SDS011;48003;52.084;5.224;2022-10-30T00:51:29;17.11;;;9.71;;
36833;SDS011;48003;52.084;5.224;2022-10-30T00:53:09;19.3;;;9.81;;
36833;SDS011;48003;52.084;5.224;2022-10-30T00:54:49;19.8;;;9.71;;
36833;SDS011;48003;52.084;5.224;2022-10-30T00:56:27;19.7;;;10.1;;
36833;SDS011;48003;52.084;5.224;2022-10-30T00:59:48;19.7;;;10.1;;
36833;SDS011;48003;52.084;5.224;2022-10-30T01:01:26;18.41;;;9.6;;
36833;SDS011;48003;52.084;5.224;2022-10-30T01:03:07;20.6;;;9.5;;
36833;SDS011;48003;52.084;5.224;2022-10-30T01:04:45;19.41;;;9.5;;
36833;SDS011;48003;52.084;5.224;2022-10-30T01:08:03;16.7;;;9.0;;
36833;SDS011;48003;52.084;5.224;2022-10-30T01:09:40;22.3;;;9.21;;
36833;SDS011;48003;52.084;5.224;2022-10-30T01:11:17;18.7;;;9.5;;
36833;SDS011;48003;52.084;5.224;2022-10-30T01:14:34;20.5;;;9.9;;
36833;SDS011;48003;52.084;5.224;2022-10-30T01:16:18;13.4;;;8.31;;
36833;SDS011;48003;52.084;5.224;2022-10-30T01:18:15;20.7;;;9.81;;
36833;SDS011;48003;52.084;5.224;2022-10-30T01:20:08;19.2;;;9.81;;
36833;SDS011;48003;52.084;5.224;2022-10-30T01:23:18;20.7;;;10.0;;
36833;SDS011;48003;52.084;5.224;2022-10-30T01:25:13;18.0;;;9.21;;
36833;SDS011;48003;52.084;5.224;2022-10-30T01:27:07;18.11;;;10.1;;
36833;SDS011;48003;52.084;5.224;2022-10-30T01:29:02;30.4;;;15.8;;
36833;SDS011;48003;52.084;5.224;2022-10-30T01:30:52;21.3;;;10.6;;
36833;SDS011;48003;52.084;5.224;2022-10-30T01:32:41;20.11;;;11.2;;
36833;SDS011;48003;52.084;5.224;2022-10-30T01:34:32;20.11;;;10.7;;
36833;SDS011;48003;52.084;5.224;2022-10-30T01:36:22;20.9;;;10.5;;
36833;SDS011;48003;52.084;5.224;2022-10-30T01:38:06;21.7;;;10.1;;
36833;SDS011;48003;52.084;5.224;2022-10-30T01:41:27;20.6;;;10.3;;
36833;SDS011;48003;52.084;5.224;2022-10-30T01:43:03;18.7;;;10.0;;
36833;SDS011;48003;52.084;5.224;2022-10-30T01:44:40;18.7;;;9.5;;
36833;SDS011;48003;52.084;5.224;2022-10-30T01:48:23;20.6;;;9.6;;
36833;SDS011;48003;52.084;5.224;2022-10-30T01:50:30;19.5;;;10.9;;
36833;SDS011;48003;52.084;5.224;2022-10-30T01:52:16;17.7;;;10.21;;
36833;SDS011;48003;52.084;5.224;2022-10-30T01:53:59;19.3;;;9.6;;
36833;SDS011;48003;52.084;5.224;2022-10-30T01:55:47;18.41;;;9.81;;
36833;SDS011;48003;52.084;5.224;2022-10-30T01:57:33;19.5;;;9.21;;
36833;SDS011;48003;52.084;5.224;2022-10-30T01:59:16;17.61;;;9.9;;
36833;SDS011;48003;52.084;5.224;2022-10-30T02:02:35;18.61;;;10.5;;
36833;SDS011;48003;52.084;5.224;2022-10-30T02:04:12;17.8;;;9.5;;
36833;SDS011;48003;52.084;5.224;2022-10-30T02:05:50;18.5;;;9.71;;
36833;SDS011;48003;52.084;5.224;2022-10-30T02:07:27;19.0;;;9.81;;
36833;SDS011;48003;52.084;5.224;2022-10-30T02:10:41;20.8;;;10.4;;
36833;SDS011;48003;52.084;5.224;2022-10-30T02:12:21;18.41;;;10.4;;
36833;SDS011;48003;52.084;5.224;2022-10-30T02:14:00;15.9;;;9.81;;
36833;SDS011;48003;52.084;5.224;2022-10-30T02:17:18;17.61;;;10.3;;
36833;SDS011;48003;52.084;5.224;2022-10-30T02:18:55;19.11;;;10.3;;
36833;SDS011;48003;52.084;5.224;2022-10-30T02:20:31;20.41;;;11.0;;
36833;SDS011;48003;52.084;5.224;2022-10-30T02:22:09;20.41;;;10.6;;
36833;SDS011;48003;52.084;5.224;2022-10-30T02:25:23;18.11;;;10.8;;
36833;SDS011;48003;52.084;5.224;2022-10-30T02:26:59;18.8;;;10.21;;
36833;SDS011;48003;52.084;5.224;2022-10-30T02:28:36;18.7;;;10.5;;
36833;SDS011;48003;52.084;5.224;2022-10-30T02:31:49;20.2;;;10.21;;
36833;SDS011;48003;52.084;5.224;2022-10-30T02:33:26;18.2;;;10.5;;
36833;SDS011;48003;52.084;5.224;2022-10-30T02:35:03;21.6;;;11.7;;
36833;SDS011;48003;52.084;5.224;2022-10-30T02:36:41;22.5;;;10.8;;
36833;SDS011;48003;52.084;5.224;2022-10-30T02:39:54;20.0;;;11.6;;
36833;SDS011;48003;52.084;5.224;2022-10-30T02:41:30;23.2;;;10.8;;
36833;SDS011;48003;52.084;5.224;2022-10-30T02:43:06;24.3;;;11.4;;
36833;SDS011;48003;52.084;5.224;2022-10-30T02:46:19;21.3;;;10.9;;
36833;SDS011;48003;52.084;5.224;2022-10-30T02:49:34;18.7;;;10.8;;
36833;SDS011;48003;52.084;5.224;2022-10-30T02:52:48;20.41;;;11.0;;
36833;SDS011;48003;52.084;5.224;2022-10-30T02:54:25;19.41;;;10.6;;
36833;SDS011;48003;52.084;5.224;2022-10-30T02:56:02;20.2;;;11.5;;
36833;SDS011;48003;52.084;5.224;2022-10-30T02:57:39;22.5;;;11.6;;
36833;SDS011;48003;52.084;5.224;2022-10-30T03:02:29;21.5;;;10.7;;
36833;SDS011;48003;52.084;5.224;2022-10-30T03:04:05;16.7;;;9.6;;
36833;SDS011;48003;52.084;5.224;2022-10-30T03:07:18;19.2;;;9.9;;
36833;SDS011;48003;52.084;5.224;2022-10-30T03:08:54;18.41;;;9.21;;
36833;SDS011;48003;52.084;5.224;2022-10-30T03:10:30;17.3;;;9.4;;
36833;SDS011;48003;52.084;5.224;2022-10-30T03:13:43;17.8;;;10.5;;
36833;SDS011;48003;52.084;5.224;2022-10-30T03:15:22;19.41;;;10.1;;
36833;SDS011;48003;52.084;5.224;2022-10-30T03:16:58;21.0;;;10.21;;
36833;SDS011;48003;52.084;5.224;2022-10-30T03:18:34;15.9;;;9.9;;
36833;SDS011;48003;52.084;5.224;2022-10-30T03:21:48;18.0;;;11.2;;
36833;SDS011;48003;52.084;5.224;2022-10-30T03:23:24;19.11;;;10.6;;
36833;SDS011;48003;52.084;5.224;2022-10-30T03:25:02;18.41;;;10.8;;
36833;SDS011;48003;52.084;5.224;2022-10-30T03:28:16;18.0;;;11.3;;
36833;SDS011;48003;52.084;5.224;2022-10-30T03:29:53;21.4;;;11.3;;
36833;SDS011;48003;52.084;5.224;2022-10-30T03:31:29;18.3;;;10.6;;
36833;SDS011;48003;52.084;5.224;2022-10-30T03:33:06;17.5;;;11.0;;
36833;SDS011;48003;52.084;5.224;2022-10-30T03:36:18;19.11;;;11.3;;
36833;SDS011;48003;52.084;5.224;2022-10-30T03:37:55;19.41;;;11.2;;
36833;SDS011;48003;52.084;5.224;2022-10-30T03:39:31;19.2;;;10.4;;
36833;SDS011;48003;52.084;5.224;2022-10-30T03:42:44;20.5;;;11.2;;
36833;SDS011;48003;52.084;5.224;2022-10-30T03:44:21;23.9;;;11.4;;
36833;SDS011;48003;52.084;5.224;2022-10-30T03:45:58;17.91;;;10.8;;
36833;SDS011;48003;52.084;5.224;2022-10-30T03:49:14;23.8;;;11.2;;
36833;SDS011;48003;52.084;5.224;2022-10-30T03:50:51;19.7;;;10.3;;
36833;SDS011;48003;52.084;5.224;2022-10-30T03:52:28;19.41;;;9.71;;
36833;SDS011;48003;52.084;5.224;2022-10-30T03:54:04;18.3;;;9.81;;
36833;SDS011;48003;52.084;5.224;2022-10-30T03:57:17;17.8;;;10.8;;
36833;SDS011;48003;52.084;5.224;2022-10-30T03:58:53;19.5;;;10.5;;
36833;SDS011;48003;52.084;5.224;2022-10-30T04:00:30;18.91;;;10.5;;
36833;SDS011;48003;52.084;5.224;2022-10-30T04:03:44;17.91;;;10.0;;
36833;SDS011;48003;52.084;5.224;2022-10-30T04:05:21;18.41;;;10.6;;
36833;SDS011;48003;52.084;5.224;2022-10-30T04:06:59;21.5;;;11.1;;
36833;SDS011;48003;52.084;5.224;2022-10-30T04:10:11;19.5;;;11.4;;
36833;SDS011;48003;52.084;5.224;2022-10-30T04:11:49;22.7;;;10.9;;
36833;SDS011;48003;52.084;5.224;2022-10-30T04:13:25;19.3;;;10.0;;
36833;SDS011;48003;52.084;5.224;2022-10-30T04:15:02;15.8;;;9.71;;
36833;SDS011;48003;52.084;5.224;2022-10-30T04:18:15;19.61;;;9.31;;
36833;SDS011;48003;52.084;5.224;2022-10-30T04:19:52;15.5;;;9.31;;
36833;SDS011;48003;52.084;5.224;2022-10-30T04:21:29;17.7;;;10.21;;
36833;SDS011;48003;52.084;5.224;2022-10-30T04:24:48;18.91;;;10.6;;
36833;SDS011;48003;52.084;5.224;2022-10-30T04:26:25;24.4;;;11.8;;
36833;SDS011;48003;52.084;5.224;2022-10-30T04:28:02;19.41;;;11.4;;
36833;SDS011;48003;52.084;5.224;2022-10-30T04:29:41;20.3;;;10.3;;
36833;SDS011;48003;52.084;5.224;2022-10-30T04:32:55;22.3;;;10.8;;
36833;SDS011;48003;52.084;5.224;2022-10-30T04:34:32;19.5;;;10.3;;
36833;SDS011;48003;52.084;5.224;2022-10-30T04:36:09;16.61;;;10.9;;
36833;SDS011;48003;52.084;5.224;2022-10-30T04:39:28;20.11;;;10.6;;
36833;SDS011;48003;52.084;5.224;2022-10-30T04:41:05;19.11;;;10.5;;
36833;SDS011;48003;52.084;5.224;2022-10-30T04:42:41;19.2;;;10.7;;
36833;SDS011;48003;52.084;5.224;2022-10-30T04:44:21;18.8;;;10.8;;
36833;SDS011;48003;52.084;5.224;2022-10-30T04:47:33;17.91;;;11.4;;
36833;SDS011;48003;52.084;5.224;2022-10-30T04:49:10;16.9;;;10.5;;
36833;SDS011;48003;52.084;5.224;2022-10-30T04:50:46;21.5;;;11.6;;
36833;SDS011;48003;52.084;5.224;2022-10-30T04:53:59;24.9;;;12.7;;
36833;SDS011;48003;52.084;5.224;2022-10-30T04:55:36;21.1;;;12.1;;
36833;SDS011;48003;52.084;5.224;2022-10-30T04:57:12;18.91;;;11.5;;
36833;SDS011;48003;52.084;5.224;2022-10-30T05:00:24;24.2;;;11.5;;
36833;SDS011;48003;52.084;5.224;2022-10-30T05:02:02;23.6;;;13.1;;
36833;SDS011;48003;52.084;5.224;2022-10-30T05:03:38;21.3;;;11.9;;
36833;SDS011;48003;52.084;5.224;2022-10-30T05:05:15;21.3;;;11.5;;
36833;SDS011;48003;52.084;5.224;2022-10-30T05:08:28;19.11;;;11.7;;
36833;SDS011;48003;52.084;5.224;2022-10-30T05:10:06;19.91;;;11.7;;
36833;SDS011;48003;52.084;5.224;2022-10-30T05:11:46;18.3;;;12.0;;
36833;SDS011;48003;52.084;5.224;2022-10-30T05:15:00;21.7;;;11.6;;
36833;SDS011;48003;52.084;5.224;2022-10-30T05:16:36;18.2;;;10.7;;
36833;SDS011;48003;52.084;5.224;2022-10-30T05:18:12;17.2;;;11.2;;
36833;SDS011;48003;52.084;5.224;2022-10-30T05:19:49;22.2;;;12.3;;
36833;SDS011;48003;52.084;5.224;2022-10-30T05:23:02;17.0;;;10.1;;
36833;SDS011;48003;52.084;5.224;2022-10-30T05:24:38;14.7;;;10.0;;
36833;SDS011;48003;52.084;5.224;2022-10-30T05:26:15;16.4;;;10.0;;
36833;SDS011;48003;52.084;5.224;2022-10-30T05:29:33;19.3;;;11.1;;
36833;SDS011;48003;52.084;5.224;2022-10-30T05:31:09;21.8;;;11.1;;
36833;SDS011;48003;52.084;5.224;2022-10-30T05:32:45;22.1;;;11.5;;
36833;SDS011;48003;52.084;5.224;2022-10-30T05:35:58;17.61;;;10.7;;
36833;SDS011;48003;52.084;5.224;2022-10-30T05:37:34;17.3;;;11.1;;
36833;SDS011;48003;52.084;5.224;2022-10-30T05:39:10;18.2;;;10.1;;
36833;SDS011;48003;52.084;5.224;2022-10-30T05:40:46;14.3;;;9.81;;
36833;SDS011;48003;52.084;5.224;2022-10-30T05:44:00;21.3;;;10.5;;
36833;SDS011;48003;52.084;5.224;2022-10-30T05:45:37;19.41;;;11.0;;
36833;SDS011;48003;52.084;5.224;2022-10-30T05:47:13;19.7;;;11.5;;
36833;SDS011;48003;52.084;5.224;2022-10-30T05:52:03;21.8;;;13.7;;
36833;SDS011;48003;52.084;5.224;2022-10-30T05:53:40;20.2;;;11.4;;
36833;SDS011;48003;52.084;5.224;2022-10-30T05:56:52;19.5;;;11.2;;
36833;SDS011;48003;52.084;5.224;2022-10-30T05:58:28;19.0;;;11.7;;
36833;SDS011;48003;52.084;5.224;2022-10-30T06:00:05;19.7;;;10.8;;
36833;SDS011;48003;52.084;5.224;2022-10-30T06:01:43;17.91;;;11.4;;
36833;SDS011;48003;52.084;5.224;2022-10-30T06:04:57;18.7;;;11.3;;
36833;SDS011;48003;52.084;5.224;2022-10-30T06:06:33;22.4;;;11.8;;
36833;SDS011;48003;52.084;5.224;2022-10-30T06:08:09;19.8;;;11.5;;
36833;SDS011;48003;52.084;5.224;2022-10-30T06:11:22;20.2;;;12.4;;
36833;SDS011;48003;52.084;5.224;2022-10-30T06:12:59;22.4;;;13.5;;
36833;SDS011;48003;52.084;5.224;2022-10-30T06:14:38;23.6;;;12.7;;
36833;SDS011;48003;52.084;5.224;2022-10-30T06:17:50;18.3;;;11.8;;
36833;SDS011;48003;52.084;5.224;2022-10-30T06:19:27;21.1;;;13.1;;
36833;SDS011;48003;52.084;5.224;2022-10-30T06:21:03;20.2;;;12.7;;
36833;SDS011;48003;52.084;5.224;2022-10-30T06:22:40;23.6;;;12.9;;
36833;SDS011;48003;52.084;5.224;2022-10-30T06:25:54;19.0;;;11.9;;
36833;SDS011;48003;52.084;5.224;2022-10-30T06:27:31;18.91;;;12.1;;
36833;SDS011;48003;52.084;5.224;2022-10-30T06:29:10;19.2;;;12.5;;
36833;SDS011;48003;52.084;5.224;2022-10-30T06:32:23;22.2;;;12.8;;
36833;SDS011;48003;52.084;5.224;2022-10-30T06:33:59;21.7;;;11.8;;
36833;SDS011;48003;52.084;5.224;2022-10-30T06:35:36;19.3;;;12.0;;
36833;SDS011;48003;52.084;5.224;2022-10-30T06:37:12;19.41;;;12.4;;
36833;SDS011;48003;52.084;5.224;2022-10-30T06:40:24;20.5;;;13.0;;
36833;SDS011;48003;52.084;5.224;2022-10-30T06:42:01;18.5;;;12.1;;
36833;SDS011;48003;52.084;5.224;2022-10-30T06:46:53;21.4;;;13.7;;
36833;SDS011;48003;52.084;5.224;2022-10-30T06:48:29;22.1;;;12.8;;
36833;SDS011;48003;52.084;5.224;2022-10-30T06:50:07;21.2;;;12.4;;
36833;SDS011;48003;52.084;5.224;2022-10-30T06:53:23;20.11;;;12.8;;
36833;SDS011;48003;52.084;5.224;2022-10-30T06:55:00;20.41;;;12.3;;
36833;SDS011;48003;52.084;5.224;2022-10-30T06:56:37;20.3;;;13.1;;
36833;SDS011;48003;52.084;5.224;2022-10-30T06:58:13;23.9;;;13.0;;
36833;SDS011;48003;52.084;5.224;2022-10-30T07:01:25;22.4;;;12.9;;
36833;SDS011;48003;52.084;5.224;2022-10-30T07:03:03;20.11;;;12.7;;
36833;SDS011;48003;52.084;5.224;2022-10-30T07:04:40;19.0;;;12.1;;
36833;SDS011;48003;52.084;5.224;2022-10-30T07:07:54;20.41;;;12.4;;
36833;SDS011;48003;52.084;5.224;2022-10-30T07:09:31;21.3;;;12.2;;
36833;SDS011;48003;52.084;5.224;2022-10-30T07:11:08;19.41;;;11.6;;
36833;SDS011;48003;52.084;5.224;2022-10-30T07:14:30;24.5;;;12.6;;
36833;SDS011;48003;52.084;5.224;2022-10-30T07:16:06;23.7;;;11.9;;
36833;SDS011;48003;52.084;5.224;2022-10-30T07:17:50;22.5;;;12.6;;
36833;SDS011;48003;52.084;5.224;2022-10-30T07:19:27;24.8;;;13.4;;
36833;SDS011;48003;52.084;5.224;2022-10-30T07:22:41;21.1;;;12.8;;
36833;SDS011;48003;52.084;5.224;2022-10-30T07:24:17;21.1;;;12.8;;
36833;SDS011;48003;52.084;5.224;2022-10-30T07:25:54;21.9;;;12.4;;
36833;SDS011;48003;52.084;5.224;2022-10-30T07:27:31;22.4;;;12.0;;
36833;SDS011;48003;52.084;5.224;2022-10-30T07:30:43;17.7;;;11.3;;
36833;SDS011;48003;52.084;5.224;2022-10-30T07:32:20;18.7;;;12.2;;
36833;SDS011;48003;52.084;5.224;2022-10-30T07:33:56;26.1;;;15.4;;
36833;SDS011;48003;52.084;5.224;2022-10-30T07:37:11;22.2;;;13.5;;
36833;SDS011;48003;52.084;5.224;2022-10-30T07:38:48;21.3;;;13.2;;
36833;SDS011;48003;52.084;5.224;2022-10-30T07:40:25;20.9;;;11.9;;
36833;SDS011;48003;52.084;5.224;2022-10-30T07:43:39;21.0;;;12.0;;
36833;SDS011;48003;52.084;5.224;2022-10-30T07:45:16;20.5;;;12.1;;
36833;SDS011;48003;52.084;5.224;2022-10-30T07:46:52;21.1;;;12.6;;
36833;SDS011;48003;52.084;5.224;2022-10-30T07:48:28;18.41;;;12.2;;
36833;SDS011;48003;52.084;5.224;2022-10-30T07:51:42;20.2;;;12.4;;
36833;SDS011;48003;52.084;5.224;2022-10-30T07:53:18;20.7;;;12.5;;
36833;SDS011;48003;52.084;5.224;2022-10-30T07:54:54;20.9;;;12.3;;
36833;SDS011;48003;52.084;5.224;2022-10-30T07:58:07;21.0;;;12.1;;
36833;SDS011;48003;52.084;5.224;2022-10-30T07:59:43;22.0;;;13.2;;
36833;SDS011;48003;52.084;5.224;2022-10-30T08:01:20;20.5;;;12.4;;
36833;SDS011;48003;52.084;5.224;2022-10-30T08:04:34;21.7;;;13.0;;
36833;SDS011;48003;52.084;5.224;2022-10-30T08:06:10;22.3;;;12.8;;
36833;SDS011;48003;52.084;5.224;2022-10-30T08:07:47;21.9;;;12.6;;
36833;SDS011;48003;52.084;5.224;2022-10-30T08:09:23;20.2;;;12.7;;
36833;SDS011;48003;52.084;5.224;2022-10-30T08:12:38;23.5;;;13.6;;
36833;SDS011;48003;52.084;5.224;2022-10-30T08:14:15;22.9;;;13.7;;
36833;SDS011;48003;52.084;5.224;2022-10-30T08:15:51;22.0;;;13.0;;
36833;SDS011;48003;52.084;5.224;2022-10-30T08:19:03;20.11;;;12.7;;
36833;SDS011;48003;52.084;5.224;2022-10-30T08:20:41;22.5;;;13.3;;
36833;SDS011;48003;52.084;5.224;2022-10-30T08:22:18;22.1;;;13.4;;
36833;SDS011;48003;52.084;5.224;2022-10-30T08:23:54;19.61;;;12.7;;
36833;SDS011;48003;52.084;5.224;2022-10-30T08:27:06;22.9;;;12.8;;
36833;SDS011;48003;52.084;5.224;2022-10-30T08:28:43;25.8;;;13.5;;
36833;SDS011;48003;52.084;5.224;2022-10-30T08:33:33;21.1;;;12.9;;
36833;SDS011;48003;52.084;5.224;2022-10-30T08:35:11;18.0;;;13.1;;
36833;SDS011;48003;52.084;5.224;2022-10-30T08:36:48;20.11;;;12.5;;
36833;SDS011;48003;52.084;5.224;2022-10-30T08:40:04;23.1;;;13.4;;
36833;SDS011;48003;52.084;5.224;2022-10-30T08:41:42;20.41;;;13.0;;
36833;SDS011;48003;52.084;5.224;2022-10-30T08:43:18;22.5;;;13.3;;
36833;SDS011;48003;52.084;5.224;2022-10-30T08:44:55;18.61;;;12.4;;
36833;SDS011;48003;52.084;5.224;2022-10-30T08:48:09;18.41;;;12.3;;
36833;SDS011;48003;52.084;5.224;2022-10-30T08:49:47;23.5;;;12.7;;
36833;SDS011;48003;52.084;5.224;2022-10-30T08:51:23;20.0;;;12.9;;
36833;SDS011;48003;52.084;5.224;2022-10-30T08:54:38;21.4;;;12.6;;
36833;SDS011;48003;52.084;5.224;2022-10-30T08:56:14;21.4;;;12.7;;
36833;SDS011;48003;52.084;5.224;2022-10-30T08:57:51;17.61;;;12.3;;
36833;SDS011;48003;52.084;5.224;2022-10-30T08:59:27;22.2;;;13.2;;
36833;SDS011;48003;52.084;5.224;2022-10-30T09:02:41;19.5;;;12.1;;
36833;SDS011;48003;52.084;5.224;2022-10-30T09:04:17;19.7;;;12.7;;
36833;SDS011;48003;52.084;5.224;2022-10-30T09:05:53;20.0;;;12.5;;
36833;SDS011;48003;52.084;5.224;2022-10-30T09:09:06;21.4;;;12.5;;
36833;SDS011;48003;52.084;5.224;2022-10-30T09:10:43;26.1;;;12.4;;
36833;SDS011;48003;52.084;5.224;2022-10-30T09:12:19;25.1;;;12.9;;
36833;SDS011;48003;52.084;5.224;2022-10-30T09:15:32;18.41;;;12.4;;
36833;SDS011;48003;52.084;5.224;2022-10-30T09:17:08;22.0;;;12.7;;
36833;SDS011;48003;52.084;5.224;2022-10-30T09:18:45;21.4;;;12.3;;
36833;SDS011;48003;52.084;5.224;2022-10-30T09:21:59;19.5;;;11.3;;
36833;SDS011;48003;52.084;5.224;2022-10-30T09:23:35;18.91;;;12.7;;
36833;SDS011;48003;52.084;5.224;2022-10-30T09:25:11;21.3;;;13.1;;
36833;SDS011;48003;52.084;5.224;2022-10-30T09:26:48;18.91;;;12.3;;
36833;SDS011;48003;52.084;5.224;2022-10-30T09:30:01;21.4;;;12.2;;
36833;SDS011;48003;52.084;5.224;2022-10-30T09:31:37;18.8;;;12.3;;
36833;SDS011;48003;52.084;5.224;2022-10-30T09:33:14;21.1;;;12.6;;
36833;SDS011;48003;52.084;5.224;2022-10-30T09:36:26;20.5;;;13.3;;
36833;SDS011;48003;52.084;5.224;2022-10-30T09:38:02;20.11;;;12.4;;
36833;SDS011;48003;52.084;5.224;2022-10-30T09:39:41;22.8;;;12.2;;
36833;SDS011;48003;52.084;5.224;2022-10-30T09:41:22;21.0;;;12.5;;
36833;SDS011;48003;52.084;5.224;2022-10-30T09:45:19;23.0;;;13.3;;
36833;SDS011;48003;52.084;5.224;2022-10-30T09:48:10;19.5;;;12.3;;
36833;SDS011;48003;52.084;5.224;2022-10-30T09:50:17;27.5;;;13.6;;
36833;SDS011;48003;52.084;5.224;2022-10-30T09:52:04;18.5;;;12.9;;
36833;SDS011;48003;52.084;5.224;2022-10-30T09:55:50;18.8;;;11.8;;
36833;SDS011;48003;52.084;5.224;2022-10-30T09:57:34;19.5;;;13.0;;
36833;SDS011;48003;52.084;5.224;2022-10-30T09:59:24;18.7;;;12.2;;
36833;SDS011;48003;52.084;5.224;2022-10-30T10:01:14;20.6;;;12.3;;
36833;SDS011;48003;52.084;5.224;2022-10-30T10:04:53;22.5;;;12.6;;
36833;SDS011;48003;52.084;5.224;2022-10-30T10:06:35;21.0;;;13.0;;
36833;SDS011;48003;52.084;5.224;2022-10-30T10:10:03;24.9;;;13.7;;
36833;SDS011;48003;52.084;5.224;2022-10-30T10:11:45;25.0;;;12.8;;
36833;SDS011;48003;52.084;5.224;2022-10-30T10:13:29;24.0;;;12.8;;
36833;SDS011;48003;52.084;5.224;2022-10-30T10:15:13;21.5;;;12.9;;
36833;SDS011;48003;52.084;5.224;2022-10-30T10:17:11;19.0;;;12.5;;
36833;SDS011;48003;52.084;5.224;2022-10-30T10:20:42;21.7;;;13.2;;
36833;SDS011;48003;52.084;5.224;2022-10-30T10:22:24;21.4;;;12.9;;
36833;SDS011;48003;52.084;5.224;2022-10-30T10:24:08;22.5;;;13.8;;
36833;SDS011;48003;52.084;5.224;2022-10-30T10:25:54;22.7;;;13.2;;
36833;SDS011;48003;52.084;5.224;2022-10-30T10:27:39;21.0;;;12.5;;
36833;SDS011;48003;52.084;5.224;2022-10-30T10:29:33;17.11;;;11.9;;
36833;SDS011;48003;52.084;5.224;2022-10-30T10:33:32;20.6;;;12.5;;
36833;SDS011;48003;52.084;5.224;2022-10-30T10:35:31;19.91;;;12.9;;
36833;SDS011;48003;52.084;5.224;2022-10-30T10:38:12;20.3;;;12.4;;
36833;SDS011;48003;52.084;5.224;2022-10-30T10:40:02;23.6;;;13.4;;
36833;SDS011;48003;52.084;5.224;2022-10-30T10:43:49;20.7;;;12.8;;
36833;SDS011;48003;52.084;5.224;2022-10-30T10:45:43;23.9;;;13.2;;
36833;SDS011;48003;52.084;5.224;2022-10-30T10:47:35;20.5;;;12.6;;
36833;SDS011;48003;52.084;5.224;2022-10-30T10:49:34;21.8;;;12.3;;
36833;SDS011;48003;52.084;5.224;2022-10-30T10:51:22;21.6;;;12.3;;
36833;SDS011;48003;52.084;5.224;2022-10-30T10:53:08;24.4;;;12.2;;
36833;SDS011;48003;52.084;5.224;2022-10-30T10:54:51;21.5;;;12.3;;
36833;SDS011;48003;52.084;5.224;2022-10-30T10:58:16;20.3;;;12.5;;
36833;SDS011;48003;52.084;5.224;2022-10-30T11:00:12;21.3;;;11.7;;
36833;SDS011;48003;52.084;5.224;2022-10-30T11:01:53;20.0;;;12.3;;
36833;SDS011;48003;52.084;5.224;2022-10-30T11:03:37;23.0;;;12.3;;
36833;SDS011;48003;52.084;5.224;2022-10-30T11:05:26;19.41;;;11.8;;
36833;SDS011;48003;52.084;5.224;2022-10-30T11:07:11;21.1;;;11.7;;
36833;SDS011;48003;52.084;5.224;2022-10-30T11:10:48;26.2;;;12.8;;
36833;SDS011;48003;52.084;5.224;2022-10-30T11:12:34;16.61;;;11.4;;
36833;SDS011;48003;52.084;5.224;2022-10-30T11:14:12;19.2;;;11.5;;
36833;SDS011;48003;52.084;5.224;2022-10-30T11:15:53;20.41;;;11.5;;
36833;SDS011;48003;52.084;5.224;2022-10-30T11:17:40;22.6;;;11.8;;
36833;SDS011;48003;52.084;5.224;2022-10-30T11:21:08;19.0;;;11.5;;
36833;SDS011;48003;52.084;5.224;2022-10-30T11:22:48;21.4;;;11.7;;
36833;SDS011;48003;52.084;5.224;2022-10-30T11:24:26;17.41;;;11.0;;
36833;SDS011;48003;52.084;5.224;2022-10-30T11:26:23;21.7;;;12.4;;
36833;SDS011;48003;52.084;5.224;2022-10-30T11:28:35;22.9;;;11.7;;
36833;SDS011;48003;52.084;5.224;2022-10-30T11:30:18;20.5;;;11.6;;
36833;SDS011;48003;52.084;5.224;2022-10-30T11:33:36;19.3;;;11.1;;
36833;SDS011;48003;52.084;5.224;2022-10-30T11:35:13;19.91;;;11.5;;
36833;SDS011;48003;52.084;5.224;2022-10-30T11:36:52;18.61;;;11.0;;
36833;SDS011;48003;52.084;5.224;2022-10-30T11:38:30;22.0;;;10.9;;
36833;SDS011;48003;52.084;5.224;2022-10-30T11:41:55;23.4;;;10.5;;
36833;SDS011;48003;52.084;5.224;2022-10-30T11:43:36;19.0;;;10.6;;
36833;SDS011;48003;52.084;5.224;2022-10-30T11:45:16;20.3;;;10.3;;
36833;SDS011;48003;52.084;5.224;2022-10-30T11:46:58;19.3;;;9.9;;
36833;SDS011;48003;52.084;5.224;2022-10-30T11:50:16;19.11;;;10.1;;
36833;SDS011;48003;52.084;5.224;2022-10-30T11:51:55;23.1;;;11.0;;
36833;SDS011;48003;52.084;5.224;2022-10-30T11:53:34;19.61;;;10.5;;
36833;SDS011;48003;52.084;5.224;2022-10-30T11:55:17;21.9;;;10.1;;
36833;SDS011;48003;52.084;5.224;2022-10-30T11:58:34;19.5;;;10.0;;
36833;SDS011;48003;52.084;5.224;2022-10-30T12:00:16;23.2;;;10.6;;
36833;SDS011;48003;52.084;5.224;2022-10-30T12:01:56;19.11;;;10.6;;
36833;SDS011;48003;52.084;5.224;2022-10-30T12:03:36;22.2;;;10.6;;
36833;SDS011;48003;52.084;5.224;2022-10-30T12:07:16;18.0;;;10.5;;
36833;SDS011;48003;52.084;5.224;2022-10-30T12:09:00;21.3;;;10.6;;
36833;SDS011;48003;52.084;5.224;2022-10-30T12:10:40;17.7;;;9.9;;
36833;SDS011;48003;52.084;5.224;2022-10-30T12:12:21;15.8;;;9.71;;
36833;SDS011;48003;52.084;5.224;2022-10-30T12:14:02;19.3;;;10.0;;
36833;SDS011;48003;52.084;5.224;2022-10-30T12:17:19;22.7;;;10.0;;
36833;SDS011;48003;52.084;5.224;2022-10-30T12:18:58;20.0;;;9.6;;
36833;SDS011;48003;52.084;5.224;2022-10-30T12:20:38;24.4;;;9.81;;
36833;SDS011;48003;52.084;5.224;2022-10-30T12:22:27;19.0;;;9.81;;
36833;SDS011;48003;52.084;5.224;2022-10-30T12:25:53;17.3;;;9.71;;
36833;SDS011;48003;52.084;5.224;2022-10-30T12:27:33;18.0;;;9.81;;
36833;SDS011;48003;52.084;5.224;2022-10-30T12:29:13;18.7;;;9.9;;
36833;SDS011;48003;52.084;5.224;2022-10-30T12:30:56;22.1;;;10.5;;
36833;SDS011;48003;52.084;5.224;2022-10-30T12:34:26;21.2;;;10.21;;
36833;SDS011;48003;52.084;5.224;2022-10-30T12:36:12;17.7;;;11.8;;
36833;SDS011;48003;52.084;5.224;2022-10-30T12:37:52;21.4;;;12.4;;
36833;SDS011;48003;52.084;5.224;2022-10-30T12:39:30;21.4;;;13.0;;
36833;SDS011;48003;52.084;5.224;2022-10-30T12:41:24;20.5;;;11.2;;
36833;SDS011;48003;52.084;5.224;2022-10-30T12:44:54;21.5;;;10.8;;
36833;SDS011;48003;52.084;5.224;2022-10-30T12:46:50;15.8;;;10.0;;
36833;SDS011;48003;52.084;5.224;2022-10-30T12:48:32;17.7;;;10.3;;
36833;SDS011;48003;52.084;5.224;2022-10-30T12:50:18;20.6;;;10.3;;